Hovedside
METAR-TAF:

METAR-TAF

Lufthavner :

Örebro, Sverige

breddegrad: 59-14N, lengdegrad: 015-03E, høyde over havet: 57 m

Gjeldene værobservasjon

Denne rapporten ble laget for 24 minutter siden, klokken 17:20 UTC
Vind 5 kt fra Sørøst, skiftende mellom Øst og Sør-sørøst
Temperatur 25°C
Luftfuktighet 24%
Trykk 1026 hPa
Sikt 10 km eller mer

METAR: ESOE 261720Z AUTO 13005KT 100V160 9999 NCD 25/03 Q1026

Tid: 19:44 (17:44 UTC)


TAF: fraværende

Værobservasjoner og værvarsel for over 4000 flyplasser (METAR- og TAF-rapporter).

Tilgjengelige stasjoner er representert av de røde og gule prikkene på kartet.

Hold musepekeren over prikken for å se navnet på stasjonen.

Klikk så for å se værobservasjoner og -varsler.

For å forandre kartet kan du klikke på den grønne knappen med svart kryss for å zoome inn, på den grønne knappen med strek for å zoome ut, eller på de grønne pilene for å se tilstøtende kart.


METAR-TAF: